createdAt,value
2022-08-18T00:01:06.047Z,11.70
2022-08-18T00:03:57.286Z,11.48
2022-08-18T00:06:20.798Z,11.38
2022-08-18T00:08:47.910Z,10.15
2022-08-18T00:11:15.719Z,10.38
2022-08-18T00:13:42.627Z,9.50
2022-08-18T00:16:09.494Z,10.27
2022-08-18T00:18:36.354Z,9.48
2022-08-18T00:21:03.262Z,9.57
2022-08-18T00:23:32.649Z,9.90
2022-08-18T00:26:00.356Z,9.68
2022-08-18T00:28:27.300Z,9.55
2022-08-18T00:30:54.465Z,10.20
2022-08-18T00:33:22.141Z,9.95
2022-08-18T00:35:49.039Z,9.57
2022-08-18T00:38:24.819Z,9.65
2022-08-18T00:40:54.410Z,8.77
2022-08-18T00:43:32.528Z,9.07
2022-08-18T00:45:59.472Z,8.70
2022-08-18T00:48:30.229Z,9.45
2022-08-18T00:51:00.554Z,9.43
2022-08-18T00:53:50.708Z,8.75
2022-08-18T00:56:28.414Z,7.97
2022-08-18T00:59:04.589Z,8.55
2022-08-18T01:01:34.387Z,8.15
2022-08-18T01:04:09.800Z,9.13
2022-08-18T01:06:46.874Z,9.13
2022-08-18T01:09:13.997Z,8.85
2022-08-18T01:11:41.446Z,8.93
2022-08-18T01:14:09.539Z,9.80
2022-08-18T01:16:57.626Z,9.10
2022-08-18T01:19:44.755Z,9.02
2022-08-18T01:22:22.588Z,9.23
2022-08-18T01:25:09.734Z,8.50
2022-08-18T01:27:36.987Z,8.82
2022-08-18T01:30:10.198Z,8.68
2022-08-18T01:32:39.119Z,9.02
2022-08-18T01:35:09.537Z,8.98
2022-08-18T01:37:37.637Z,8.63
2022-08-18T01:41:17.227Z,8.15
2022-08-18T01:42:56.501Z,8.85
2022-08-18T01:45:23.677Z,8.88
2022-08-18T01:47:50.804Z,9.00
2022-08-18T01:50:18.233Z,9.43
2022-08-18T01:52:45.418Z,9.27
2022-08-18T01:55:14.650Z,9.85
2022-08-18T01:57:44.927Z,9.73
2022-08-18T02:00:14.463Z,8.98
2022-08-18T02:02:42.814Z,8.60
2022-08-18T02:05:16.610Z,8.88
2022-08-18T02:07:44.488Z,9.30
2022-08-18T02:10:12.348Z,8.40
2022-08-18T02:12:40.855Z,8.77
2022-08-18T02:15:08.749Z,8.93
2022-08-18T02:17:43.915Z,8.48
2022-08-18T02:20:13.713Z,8.07
2022-08-18T02:22:41.169Z,8.32
2022-08-18T02:25:08.790Z,9.27
2022-08-18T02:27:35.828Z,7.90
2022-08-18T02:30:06.715Z,7.90
2022-08-18T02:32:33.858Z,8.93
2022-08-18T02:35:01.414Z,9.10
2022-08-18T02:37:28.313Z,7.93
2022-08-18T02:39:55.362Z,8.27
2022-08-18T02:42:22.247Z,7.35
2022-08-18T02:44:49.268Z,8.13
2022-08-18T02:47:20.378Z,8.95
2022-08-18T02:49:47.861Z,8.02
2022-08-18T02:52:14.856Z,7.88
2022-08-18T02:54:41.677Z,8.50
2022-08-18T02:57:10.803Z,9.05
2022-08-18T02:59:39.527Z,8.10
2022-08-18T03:02:09.498Z,7.20
2022-08-18T03:04:36.627Z,7.47
2022-08-18T03:07:06.061Z,7.53
2022-08-18T03:09:34.589Z,7.30
2022-08-18T03:12:02.120Z,7.57
2022-08-18T03:14:29.686Z,8.65
2022-08-18T03:16:57.146Z,8.00
2022-08-18T03:19:29.116Z,8.73
2022-08-18T03:21:59.366Z,7.88
2022-08-18T03:24:30.388Z,6.97
2022-08-18T03:26:57.338Z,6.38
2022-08-18T03:29:30.965Z,7.03
2022-08-18T03:32:00.151Z,6.50
2022-08-18T03:34:26.960Z,6.85
2022-08-18T03:36:53.845Z,6.43
2022-08-18T03:39:23.670Z,6.85
2022-08-18T03:41:59.627Z,7.65
2022-08-18T03:44:33.863Z,6.78
2022-08-18T03:47:04.779Z,8.00
2022-08-18T03:49:33.739Z,8.88
2022-08-18T03:52:01.507Z,9.73
2022-08-18T03:54:31.969Z,9.30
2022-08-18T03:57:00.179Z,9.52
2022-08-18T03:59:28.190Z,9.10
2022-08-18T04:01:55.516Z,8.85
2022-08-18T04:04:25.545Z,8.60
2022-08-18T04:06:58.743Z,8.43
2022-08-18T04:09:27.982Z,8.20
2022-08-18T04:11:55.986Z,7.43
2022-08-18T04:14:25.200Z,7.88
2022-08-18T04:16:52.611Z,7.35
2022-08-18T04:19:22.626Z,6.95
2022-08-18T04:21:55.471Z,6.65
2022-08-18T04:24:22.336Z,6.85
2022-08-18T04:26:50.308Z,7.10
2022-08-18T04:29:21.144Z,7.57
2022-08-18T04:31:49.041Z,5.93
2022-08-18T04:34:16.241Z,6.10
2022-08-18T04:36:43.679Z,5.80
2022-08-18T04:39:11.988Z,7.38
2022-08-18T04:41:41.056Z,8.82
2022-08-18T04:44:09.887Z,8.45
2022-08-18T04:46:42.408Z,8.68
2022-08-18T04:49:10.815Z,7.55
2022-08-18T04:52:32.006Z,8.00
2022-08-18T04:54:29.471Z,8.20
2022-08-18T04:56:56.375Z,7.93
2022-08-18T04:59:23.204Z,7.72
2022-08-18T05:01:49.994Z,7.13
2022-08-18T05:04:17.692Z,7.43
2022-08-18T05:06:45.822Z,7.53
2022-08-18T05:09:16.682Z,7.50
2022-08-18T05:11:50.390Z,6.63
2022-08-18T05:14:17.709Z,6.65
2022-08-18T05:16:48.594Z,7.30
2022-08-18T05:19:23.127Z,7.03
2022-08-18T05:21:51.494Z,6.65
2022-08-18T05:24:21.372Z,6.57
2022-08-18T05:26:49.030Z,7.07
2022-08-18T05:29:17.805Z,7.13
2022-08-18T05:31:46.436Z,6.70
2022-08-18T05:34:13.225Z,6.75
2022-08-18T05:36:48.855Z,6.57
2022-08-18T05:39:23.854Z,7.38
2022-08-18T05:41:53.697Z,7.55
2022-08-18T05:44:25.741Z,7.80
2022-08-18T05:46:55.577Z,7.93
2022-08-18T05:49:24.802Z,8.40
2022-08-18T05:51:59.826Z,8.00
2022-08-18T05:54:53.370Z,7.20
2022-08-18T05:57:22.452Z,7.20
2022-08-18T05:59:52.837Z,6.93
2022-08-18T06:02:38.628Z,10.30
2022-08-18T06:05:13.065Z,9.38
2022-08-18T06:07:46.996Z,12.57
2022-08-18T06:10:15.440Z,17.90
2022-08-18T06:12:52.636Z,9.10
2022-08-18T06:15:31.617Z,7.68
2022-08-18T06:18:57.657Z,8.00
2022-08-18T06:21:50.851Z,8.07
2022-08-18T06:24:29.606Z,7.32
2022-08-18T06:27:09.119Z,7.32
2022-08-18T06:30:04.499Z,7.10
2022-08-18T06:33:08.828Z,6.50
2022-08-18T06:35:38.525Z,7.10
2022-08-18T06:38:40.320Z,7.15
2022-08-18T06:41:40.486Z,9.45
2022-08-18T06:44:21.788Z,8.18
2022-08-18T06:46:55.907Z,7.78
2022-08-18T06:49:51.304Z,6.60
2022-08-18T06:52:29.224Z,7.25
2022-08-18T06:55:00.019Z,6.85
2022-08-18T06:57:35.546Z,7.45
2022-08-18T07:00:10.417Z,7.68
2022-08-18T07:02:46.091Z,7.70
2022-08-18T07:05:26.746Z,7.43
2022-08-18T07:08:30.547Z,6.68
2022-08-18T07:11:13.080Z,6.60
2022-08-18T07:13:44.382Z,6.05
2022-08-18T07:16:30.122Z,6.60
2022-08-18T07:19:17.019Z,9.50
2022-08-18T07:21:44.887Z,6.82
2022-08-18T07:24:25.236Z,6.32
2022-08-18T07:27:08.443Z,5.82
2022-08-18T07:29:39.055Z,5.10
2022-08-18T07:32:20.928Z,6.25
2022-08-18T07:34:53.727Z,5.32
2022-08-18T07:37:31.567Z,5.93
2022-08-18T07:40:11.348Z,5.32
2022-08-18T07:42:54.410Z,5.75
2022-08-18T07:45:33.652Z,5.45
2022-08-18T07:48:39.897Z,4.97
2022-08-18T07:51:18.797Z,5.57
2022-08-18T07:53:56.283Z,4.60
2022-08-18T07:56:45.687Z,5.60
2022-08-18T07:59:49.002Z,5.30
2022-08-18T08:02:15.948Z,5.47
2022-08-18T08:04:48.627Z,5.00
2022-08-18T08:07:25.378Z,4.80
2022-08-18T08:10:22.658Z,5.35
2022-08-18T08:13:08.355Z,5.30
2022-08-18T08:16:09.505Z,5.30
2022-08-18T08:18:48.658Z,6.38
2022-08-18T08:21:21.603Z,5.80
2022-08-18T08:24:12.787Z,5.20
2022-08-18T08:27:17.327Z,5.55
2022-08-18T08:30:01.503Z,5.55
2022-08-18T08:32:35.414Z,5.75
2022-08-18T08:35:50.064Z,5.60
2022-08-18T08:38:38.790Z,5.45
2022-08-18T08:41:08.053Z,5.30
2022-08-18T08:43:40.355Z,5.45
2022-08-18T08:46:11.338Z,5.25
2022-08-18T08:48:44.100Z,5.78
2022-08-18T08:51:33.766Z,5.60
2022-08-18T08:54:23.486Z,5.35
2022-08-18T08:56:55.183Z,4.53
2022-08-18T08:59:23.402Z,4.90
2022-08-18T09:02:46.572Z,4.72
2022-08-18T09:05:19.895Z,4.57
2022-08-18T09:08:17.967Z,4.63
2022-08-18T09:10:44.923Z,4.68
2022-08-18T09:13:42.110Z,4.70
2022-08-18T09:16:24.544Z,5.47
2022-08-18T09:19:08.395Z,4.63
2022-08-18T09:21:41.841Z,5.18
2022-08-18T09:24:12.907Z,5.28
2022-08-18T09:26:42.334Z,5.82
2022-08-18T09:29:44.327Z,6.03
2022-08-18T09:35:09.956Z,5.45
2022-08-18T09:38:20.717Z,5.30
2022-08-18T09:41:09.208Z,6.13
2022-08-18T09:44:18.049Z,6.03
2022-08-18T09:46:48.662Z,5.72
2022-08-18T09:49:26.772Z,6.45
2022-08-18T09:52:17.848Z,5.10
2022-08-18T09:55:18.565Z,5.43
2022-08-18T09:57:48.122Z,5.55
2022-08-18T10:00:31.194Z,4.75
2022-08-18T10:03:02.578Z,5.88
2022-08-18T10:05:31.914Z,5.32
2022-08-18T10:08:14.628Z,4.70
2022-08-18T10:11:21.653Z,4.70
2022-08-18T10:13:49.594Z,4.60
2022-08-18T10:16:57.500Z,4.30
2022-08-18T10:19:33.668Z,4.40
2022-08-18T10:22:09.416Z,4.80
2022-08-18T10:24:54.948Z,4.93
2022-08-18T10:27:36.881Z,4.43
2022-08-18T10:30:05.525Z,4.82
2022-08-18T10:32:44.360Z,4.78
2022-08-18T10:35:37.654Z,4.63
2022-08-18T10:38:36.874Z,4.53
2022-08-18T10:41:15.524Z,4.82
2022-08-18T10:43:57.553Z,4.63
2022-08-18T10:46:36.996Z,5.05
2022-08-18T10:49:12.880Z,5.30
2022-08-18T10:52:03.173Z,4.90
2022-08-18T10:54:57.053Z,4.65
2022-08-18T10:57:45.753Z,4.85
2022-08-18T11:00:19.370Z,4.65
2022-08-18T11:05:44.876Z,4.75
2022-08-18T11:08:20.025Z,4.80
2022-08-18T11:11:24.691Z,5.10
2022-08-18T11:13:56.238Z,5.00
2022-08-18T11:16:54.015Z,4.95
2022-08-18T11:19:25.149Z,4.65
2022-08-18T11:21:53.382Z,4.95
2022-08-18T11:24:28.011Z,4.75
2022-08-18T11:26:58.915Z,4.93
2022-08-18T11:29:29.075Z,4.55
2022-08-18T11:34:59.491Z,5.00
2022-08-18T11:37:49.605Z,4.85
2022-08-18T11:40:51.912Z,5.05
2022-08-18T11:43:29.710Z,4.97
2022-08-18T11:46:29.711Z,4.75
2022-08-18T11:49:01.301Z,4.50
2022-08-18T11:51:32.318Z,4.32
2022-08-18T11:54:13.067Z,4.15
2022-08-18T11:56:40.349Z,4.50
2022-08-18T12:02:21.200Z,4.07
2022-08-18T12:04:53.190Z,4.15
2022-08-18T12:07:35.848Z,4.95
2022-08-18T12:10:26.528Z,4.60
2022-08-18T12:12:57.552Z,3.92
2022-08-18T12:15:45.030Z,4.55
2022-08-18T12:18:26.124Z,4.32
2022-08-18T12:20:58.599Z,4.43
2022-08-18T12:23:26.020Z,4.70
2022-08-18T12:25:52.803Z,4.82
2022-08-18T12:28:22.811Z,5.32
2022-08-18T12:30:57.108Z,6.43
2022-08-18T12:36:13.641Z,4.75
2022-08-18T12:38:43.551Z,7.22
2022-08-18T12:41:12.109Z,5.07
2022-08-18T12:43:39.804Z,4.55
2022-08-18T12:46:12.037Z,4.28
2022-08-18T12:48:39.723Z,4.57
2022-08-18T12:51:08.310Z,4.47
2022-08-18T12:53:49.255Z,4.50
2022-08-18T12:56:31.004Z,4.10
2022-08-18T12:59:05.127Z,4.20
2022-08-18T13:01:34.582Z,4.50
2022-08-18T13:04:11.673Z,4.57
2022-08-18T13:06:59.060Z,4.43
2022-08-18T13:09:35.575Z,4.20
2022-08-18T13:12:16.499Z,4.18
2022-08-18T13:14:44.488Z,4.45
2022-08-18T13:17:30.071Z,3.83
2022-08-18T13:20:11.347Z,4.57
2022-08-18T13:22:40.962Z,4.22
2022-08-18T13:25:11.474Z,5.07
2022-08-18T13:27:43.633Z,4.30
2022-08-18T13:30:30.957Z,4.55
2022-08-18T13:33:05.284Z,4.75
2022-08-18T13:35:44.381Z,4.63
2022-08-18T13:38:25.850Z,4.25
2022-08-18T13:40:57.633Z,4.68
2022-08-18T13:43:35.522Z,5.18
2022-08-18T13:46:03.921Z,5.22
2022-08-18T13:48:31.966Z,5.40
2022-08-18T13:51:01.387Z,6.22
2022-08-18T13:53:31.497Z,6.82
2022-08-18T13:55:59.277Z,6.45
2022-08-18T13:58:27.812Z,7.88
2022-08-18T14:01:37.353Z,8.85
2022-08-18T14:03:51.608Z,9.48
2022-08-18T14:06:23.846Z,9.20
2022-08-18T14:08:52.711Z,8.95
2022-08-18T14:11:32.862Z,8.57
2022-08-18T14:14:02.243Z,8.60
2022-08-18T14:16:29.461Z,7.82
2022-08-18T14:19:17.652Z,8.60
2022-08-18T14:22:06.562Z,8.70
2022-08-18T14:24:58.380Z,8.48
2022-08-18T14:27:34.994Z,9.25
2022-08-18T14:30:11.964Z,8.70
2022-08-18T14:32:48.963Z,8.48
2022-08-18T14:36:03.656Z,8.98
2022-08-18T14:38:06.892Z,9.00
2022-08-18T14:40:38.863Z,9.10
2022-08-18T14:43:12.067Z,9.27
2022-08-18T14:45:48.665Z,9.18
2022-08-18T14:48:22.222Z,8.82
2022-08-18T14:50:54.445Z,9.45
2022-08-18T14:53:24.746Z,9.95
2022-08-18T14:55:53.575Z,8.63
2022-08-18T14:58:28.650Z,9.23
2022-08-18T15:00:57.774Z,8.90
2022-08-18T15:03:28.309Z,8.93
2022-08-18T15:06:00.439Z,8.65
2022-08-18T15:08:27.962Z,8.05
2022-08-18T15:10:55.798Z,9.65
2022-08-18T15:13:26.469Z,9.43
2022-08-18T15:15:55.812Z,10.00
2022-08-18T15:18:29.450Z,8.73
2022-08-18T15:21:19.648Z,9.15
2022-08-18T15:24:20.713Z,9.00
2022-08-18T15:26:51.753Z,11.60
2022-08-18T15:29:28.058Z,10.93
2022-08-18T15:32:02.174Z,10.98
2022-08-18T15:34:47.023Z,10.13
2022-08-18T15:37:19.632Z,12.10
2022-08-18T15:39:51.943Z,12.73
2022-08-18T15:42:23.512Z,11.65
2022-08-18T15:44:50.436Z,11.90
2022-08-18T15:47:21.074Z,12.77
2022-08-18T15:49:48.463Z,12.02
2022-08-18T15:52:17.709Z,11.80
2022-08-18T15:54:50.380Z,11.10
2022-08-18T15:57:39.248Z,11.77
2022-08-18T16:00:06.126Z,10.85
2022-08-18T16:02:39.668Z,10.50
2022-08-18T16:05:10.182Z,10.82
2022-08-18T16:07:41.242Z,11.07
2022-08-18T16:10:12.786Z,11.07
2022-08-18T16:12:45.829Z,11.65
2022-08-18T16:15:15.427Z,10.55
2022-08-18T16:17:50.296Z,11.82
2022-08-18T16:20:18.812Z,11.98
2022-08-18T16:22:46.951Z,11.23
2022-08-18T16:25:16.373Z,11.65
2022-08-18T16:27:44.245Z,11.57
2022-08-18T16:30:14.524Z,10.98
2022-08-18T16:32:41.520Z,11.45
2022-08-18T16:35:08.869Z,11.85
2022-08-18T16:37:35.699Z,12.27
2022-08-18T16:40:03.749Z,12.35
2022-08-18T16:42:33.337Z,11.85
2022-08-18T16:45:01.445Z,12.90
2022-08-18T16:47:28.414Z,12.38
2022-08-18T16:49:58.632Z,12.10
2022-08-18T16:52:27.095Z,12.88
2022-08-18T16:54:57.698Z,12.80
2022-08-18T16:57:55.034Z,12.90
2022-08-18T17:00:42.192Z,12.18
2022-08-18T17:03:28.470Z,12.60
2022-08-18T17:06:07.504Z,11.90
2022-08-18T17:08:35.413Z,11.80
2022-08-18T17:11:03.726Z,12.23
2022-08-18T17:13:31.385Z,12.88
2022-08-18T17:15:58.568Z,12.75
2022-08-18T17:18:25.435Z,13.07
2022-08-18T17:20:52.739Z,12.60
2022-08-18T17:23:22.492Z,13.50
2022-08-18T17:25:50.101Z,14.15
2022-08-18T17:28:23.063Z,14.77
2022-08-18T17:30:53.272Z,14.45
2022-08-18T17:33:26.187Z,15.93
2022-08-18T17:35:54.103Z,16.77
2022-08-18T17:38:23.516Z,17.02
2022-08-18T17:40:54.381Z,17.58
2022-08-18T17:46:26.553Z,18.55
2022-08-18T17:49:02.535Z,18.45
2022-08-18T17:51:49.849Z,18.33
2022-08-18T17:54:41.997Z,18.27
2022-08-18T17:57:12.527Z,18.05
2022-08-18T17:59:52.127Z,18.52
2022-08-18T18:02:29.137Z,19.67
2022-08-18T18:05:02.786Z,21.05
2022-08-18T18:07:31.707Z,22.85
2022-08-18T18:10:17.332Z,24.27
2022-08-18T18:12:46.730Z,23.05
2022-08-18T18:15:14.175Z,24.15
2022-08-18T18:17:43.165Z,23.95
2022-08-18T18:20:41.743Z,26.05
2022-08-18T18:23:18.118Z,29.40
2022-08-18T18:25:45.090Z,28.27
2022-08-18T18:28:25.568Z,31.50
2022-08-18T18:30:52.322Z,30.95
2022-08-18T18:33:19.169Z,32.67
2022-08-18T18:35:57.790Z,31.77
2022-08-18T18:38:24.581Z,32.97
2022-08-18T18:41:20.429Z,32.10
2022-08-18T18:43:51.068Z,28.33
2022-08-18T18:46:34.685Z,27.80
2022-08-18T18:49:10.564Z,28.02
2022-08-18T18:52:00.414Z,31.05
2022-08-18T18:54:39.631Z,32.90
2022-08-18T18:57:34.771Z,37.88
2022-08-18T19:00:14.375Z,43.90
2022-08-18T19:02:58.675Z,41.08
2022-08-18T19:05:47.047Z,41.58
2022-08-18T19:08:26.443Z,39.95
2022-08-18T19:11:16.372Z,42.35
2022-08-18T19:13:55.109Z,39.45
2022-08-18T19:16:33.632Z,45.28
2022-08-18T19:19:36.923Z,43.58
2022-08-18T19:22:06.648Z,44.13
2022-08-18T19:24:46.863Z,41.80
2022-08-18T19:27:25.264Z,42.90
2022-08-18T19:30:00.411Z,44.33
2022-08-18T19:32:35.076Z,43.70
2022-08-18T19:35:04.544Z,47.38
2022-08-18T19:37:52.554Z,44.17
2022-08-18T19:40:28.170Z,46.88
2022-08-18T19:43:00.389Z,48.63
2022-08-18T19:45:40.869Z,45.25
2022-08-18T19:48:28.509Z,46.92
2022-08-18T19:51:13.234Z,45.65
2022-08-18T19:54:00.409Z,45.63
2022-08-18T19:56:41.927Z,49.65
2022-08-18T19:59:27.066Z,44.25
2022-08-18T20:02:17.100Z,46.97
2022-08-18T20:05:09.088Z,43.85
2022-08-18T20:08:00.961Z,47.75
2022-08-18T20:10:31.033Z,47.40
2022-08-18T20:13:13.410Z,46.00
2022-08-18T20:16:02.792Z,47.05
2022-08-18T20:18:33.661Z,48.10
2022-08-18T20:21:15.674Z,45.85
2022-08-18T20:24:15.277Z,44.30
2022-08-18T20:26:46.174Z,44.63
2022-08-18T20:29:39.191Z,42.17
2022-08-18T20:32:18.191Z,44.80
2022-08-18T20:34:50.549Z,41.95
2022-08-18T20:37:25.738Z,39.92
2022-08-18T20:39:55.310Z,41.72
2022-08-18T20:42:22.463Z,38.90
2022-08-18T20:44:52.536Z,40.42
2022-08-18T20:47:31.438Z,43.13
2022-08-18T20:50:31.659Z,42.20
2022-08-18T20:53:20.092Z,42.78
2022-08-18T20:55:53.243Z,44.13
2022-08-18T20:58:26.245Z,42.92
2022-08-18T21:01:01.868Z,39.47
2022-08-18T21:03:44.757Z,40.47
2022-08-18T21:06:15.251Z,41.75
2022-08-18T21:09:01.069Z,40.42
2022-08-18T21:11:36.911Z,38.10
2022-08-18T21:14:04.956Z,39.08
2022-08-18T21:16:58.958Z,38.75
2022-08-18T21:19:28.782Z,36.42
2022-08-18T21:22:01.724Z,37.05
2022-08-18T21:24:37.228Z,34.85
2022-08-18T21:27:11.212Z,35.30
2022-08-18T21:29:47.088Z,34.45
2022-08-18T21:32:30.259Z,36.80
2022-08-18T21:34:58.488Z,34.95
2022-08-18T21:37:25.520Z,36.30
2022-08-18T21:39:59.406Z,38.10
2022-08-18T21:42:45.248Z,37.00
2022-08-18T21:45:22.418Z,38.17
2022-08-18T21:48:01.930Z,41.33
2022-08-18T21:50:34.542Z,40.83
2022-08-18T21:53:28.182Z,37.88
2022-08-18T21:55:56.462Z,37.22
2022-08-18T21:58:45.115Z,36.47
2022-08-18T22:01:31.596Z,38.03
2022-08-18T22:04:18.457Z,38.10
2022-08-18T22:06:58.896Z,35.55
2022-08-18T22:09:51.295Z,35.42
2022-08-18T22:12:42.764Z,36.75
2022-08-18T22:15:14.362Z,38.55
2022-08-18T22:17:57.815Z,38.35
2022-08-18T22:20:39.335Z,39.80
2022-08-18T22:23:30.510Z,39.88
2022-08-18T22:26:09.006Z,36.63
2022-08-18T22:28:53.457Z,38.75
2022-08-18T22:31:22.978Z,39.17
2022-08-18T22:33:50.958Z,40.03
2022-08-18T22:36:28.214Z,37.53
2022-08-18T22:38:55.986Z,39.70
2022-08-18T22:41:23.021Z,37.05
2022-08-18T22:43:54.773Z,35.20
2022-08-18T22:46:24.830Z,35.30
2022-08-18T22:48:52.735Z,34.67
2022-08-18T22:51:22.852Z,36.15
2022-08-18T22:53:50.048Z,35.35
2022-08-18T22:56:34.009Z,33.45
2022-08-18T22:59:15.499Z,34.22
2022-08-18T23:01:45.833Z,32.75
2022-08-18T23:04:13.133Z,31.85
2022-08-18T23:06:39.923Z,31.50
2022-08-18T23:09:07.275Z,31.98
2022-08-18T23:11:34.648Z,32.90
2022-08-18T23:14:02.270Z,34.50
2022-08-18T23:16:31.329Z,34.97
2022-08-18T23:19:03.427Z,33.38
2022-08-18T23:21:34.611Z,34.60
2022-08-18T23:24:07.550Z,35.03
2022-08-18T23:26:34.810Z,32.38
2022-08-18T23:29:03.333Z,34.33
2022-08-18T23:31:30.301Z,33.60
2022-08-18T23:34:00.790Z,34.97
2022-08-18T23:36:29.348Z,33.28
2022-08-18T23:38:56.522Z,34.50
2022-08-18T23:41:23.563Z,31.08
2022-08-18T23:43:51.021Z,32.08
2022-08-18T23:46:22.590Z,32.67
2022-08-18T23:48:51.586Z,30.73
2022-08-18T23:51:32.895Z,31.50
2022-08-18T23:54:03.214Z,31.45
2022-08-18T23:56:31.078Z,31.85
2022-08-18T23:58:59.026Z,32.08
